sensor_id;sensor_type;location;lat;lon;timestamp;P1;durP1;ratioP1;P2;durP2;ratioP2
19183;SDS011;9724;51.194;6.856;2023-04-25T00:00:46;15.33;;;4.17;;
19183;SDS011;9724;51.194;6.856;2023-04-25T00:03:13;13.07;;;4.70;;
19183;SDS011;9724;51.194;6.856;2023-04-25T00:05:39;20.67;;;4.83;;
19183;SDS011;9724;51.194;6.856;2023-04-25T00:08:06;17.07;;;4.43;;
19183;SDS011;9724;51.194;6.856;2023-04-25T00:10:32;16.83;;;4.63;;
19183;SDS011;9724;51.194;6.856;2023-04-25T00:12:59;16.73;;;4.67;;
19183;SDS011;9724;51.194;6.856;2023-04-25T00:15:27;22.33;;;5.03;;
19183;SDS011;9724;51.194;6.856;2023-04-25T00:17:56;16.67;;;4.90;;
19183;SDS011;9724;51.194;6.856;2023-04-25T00:20:22;20.70;;;5.30;;
19183;SDS011;9724;51.194;6.856;2023-04-25T00:22:48;18.63;;;5.13;;
19183;SDS011;9724;51.194;6.856;2023-04-25T00:25:15;17.63;;;5.53;;
19183;SDS011;9724;51.194;6.856;2023-04-25T00:27:41;17.47;;;5.00;;
19183;SDS011;9724;51.194;6.856;2023-04-25T00:30:08;16.97;;;5.00;;
19183;SDS011;9724;51.194;6.856;2023-04-25T00:32:35;22.93;;;5.10;;
19183;SDS011;9724;51.194;6.856;2023-04-25T00:35:01;15.60;;;4.47;;
19183;SDS011;9724;51.194;6.856;2023-04-25T00:37:27;16.50;;;4.77;;
19183;SDS011;9724;51.194;6.856;2023-04-25T00:39:53;19.83;;;4.80;;
19183;SDS011;9724;51.194;6.856;2023-04-25T00:42:21;19.03;;;5.40;;
19183;SDS011;9724;51.194;6.856;2023-04-25T00:44:48;15.93;;;5.10;;
19183;SDS011;9724;51.194;6.856;2023-04-25T00:47:14;11.70;;;4.50;;
19183;SDS011;9724;51.194;6.856;2023-04-25T00:49:41;19.27;;;5.47;;
19183;SDS011;9724;51.194;6.856;2023-04-25T00:52:07;13.60;;;4.40;;
19183;SDS011;9724;51.194;6.856;2023-04-25T00:54:33;21.27;;;4.33;;
19183;SDS011;9724;51.194;6.856;2023-04-25T00:56:59;23.00;;;5.67;;
19183;SDS011;9724;51.194;6.856;2023-04-25T00:59:27;15.63;;;4.23;;
19183;SDS011;9724;51.194;6.856;2023-04-25T01:01:53;16.53;;;4.33;;
19183;SDS011;9724;51.194;6.856;2023-04-25T01:04:20;22.20;;;4.77;;
19183;SDS011;9724;51.194;6.856;2023-04-25T01:06:46;17.43;;;4.57;;
19183;SDS011;9724;51.194;6.856;2023-04-25T01:09:13;19.73;;;5.37;;
19183;SDS011;9724;51.194;6.856;2023-04-25T01:11:40;18.30;;;4.30;;
19183;SDS011;9724;51.194;6.856;2023-04-25T01:14:07;16.27;;;3.90;;
19183;SDS011;9724;51.194;6.856;2023-04-25T01:16:34;18.90;;;4.27;;
19183;SDS011;9724;51.194;6.856;2023-04-25T01:19:01;14.80;;;4.17;;
19183;SDS011;9724;51.194;6.856;2023-04-25T01:21:32;14.40;;;4.23;;
19183;SDS011;9724;51.194;6.856;2023-04-25T01:23:58;10.87;;;4.23;;
19183;SDS011;9724;51.194;6.856;2023-04-25T01:26:24;12.53;;;3.87;;
19183;SDS011;9724;51.194;6.856;2023-04-25T01:28:50;15.00;;;3.73;;
19183;SDS011;9724;51.194;6.856;2023-04-25T01:31:17;13.80;;;4.30;;
19183;SDS011;9724;51.194;6.856;2023-04-25T01:33:44;10.67;;;3.90;;
19183;SDS011;9724;51.194;6.856;2023-04-25T01:36:10;11.20;;;3.97;;
19183;SDS011;9724;51.194;6.856;2023-04-25T01:38:37;11.50;;;4.17;;
19183;SDS011;9724;51.194;6.856;2023-04-25T01:41:03;16.00;;;4.23;;
19183;SDS011;9724;51.194;6.856;2023-04-25T01:43:30;15.50;;;4.40;;
19183;SDS011;9724;51.194;6.856;2023-04-25T01:45:57;12.27;;;3.90;;
19183;SDS011;9724;51.194;6.856;2023-04-25T01:48:23;14.63;;;3.77;;
19183;SDS011;9724;51.194;6.856;2023-04-25T01:50:49;13.60;;;4.10;;
19183;SDS011;9724;51.194;6.856;2023-04-25T01:53:15;9.90;;;3.90;;
19183;SDS011;9724;51.194;6.856;2023-04-25T01:55:42;11.00;;;3.70;;
19183;SDS011;9724;51.194;6.856;2023-04-25T01:58:09;9.27;;;3.80;;
19183;SDS011;9724;51.194;6.856;2023-04-25T02:00:37;11.63;;;4.03;;
19183;SDS011;9724;51.194;6.856;2023-04-25T02:03:04;13.43;;;4.00;;
19183;SDS011;9724;51.194;6.856;2023-04-25T02:05:34;11.67;;;3.90;;
19183;SDS011;9724;51.194;6.856;2023-04-25T02:08:01;9.23;;;3.70;;
19183;SDS011;9724;51.194;6.856;2023-04-25T02:10:27;10.67;;;3.50;;
19183;SDS011;9724;51.194;6.856;2023-04-25T02:12:54;12.90;;;3.90;;
19183;SDS011;9724;51.194;6.856;2023-04-25T02:15:20;8.87;;;3.90;;
19183;SDS011;9724;51.194;6.856;2023-04-25T02:17:46;14.97;;;3.50;;
19183;SDS011;9724;51.194;6.856;2023-04-25T02:20:12;7.50;;;3.67;;
19183;SDS011;9724;51.194;6.856;2023-04-25T02:22:39;7.23;;;3.53;;
19183;SDS011;9724;51.194;6.856;2023-04-25T02:25:05;11.27;;;4.87;;
19183;SDS011;9724;51.194;6.856;2023-04-25T02:27:32;10.00;;;3.93;;
19183;SDS011;9724;51.194;6.856;2023-04-25T02:29:59;9.73;;;3.80;;
19183;SDS011;9724;51.194;6.856;2023-04-25T02:32:25;16.37;;;4.20;;
19183;SDS011;9724;51.194;6.856;2023-04-25T02:34:52;16.87;;;4.40;;
19183;SDS011;9724;51.194;6.856;2023-04-25T02:37:18;8.13;;;3.53;;
19183;SDS011;9724;51.194;6.856;2023-04-25T02:39:45;9.30;;;3.50;;
19183;SDS011;9724;51.194;6.856;2023-04-25T02:42:11;8.47;;;3.00;;
19183;SDS011;9724;51.194;6.856;2023-04-25T02:44:38;8.77;;;3.47;;
19183;SDS011;9724;51.194;6.856;2023-04-25T02:47:05;7.23;;;2.73;;
19183;SDS011;9724;51.194;6.856;2023-04-25T02:49:31;7.00;;;3.03;;
19183;SDS011;9724;51.194;6.856;2023-04-25T02:51:57;7.60;;;2.90;;
19183;SDS011;9724;51.194;6.856;2023-04-25T02:54:23;5.87;;;2.57;;
19183;SDS011;9724;51.194;6.856;2023-04-25T02:56:50;6.40;;;2.30;;
19183;SDS011;9724;51.194;6.856;2023-04-25T02:59:16;8.13;;;2.60;;
19183;SDS011;9724;51.194;6.856;2023-04-25T03:01:42;6.90;;;3.00;;
19183;SDS011;9724;51.194;6.856;2023-04-25T03:04:09;11.03;;;3.53;;
19183;SDS011;9724;51.194;6.856;2023-04-25T03:06:35;8.70;;;2.80;;
19183;SDS011;9724;51.194;6.856;2023-04-25T03:09:01;10.13;;;3.20;;
19183;SDS011;9724;51.194;6.856;2023-04-25T03:11:27;12.10;;;3.63;;
19183;SDS011;9724;51.194;6.856;2023-04-25T03:13:54;8.60;;;3.07;;
19183;SDS011;9724;51.194;6.856;2023-04-25T03:16:20;17.00;;;3.87;;
19183;SDS011;9724;51.194;6.856;2023-04-25T03:18:46;12.83;;;3.97;;
19183;SDS011;9724;51.194;6.856;2023-04-25T03:21:13;8.27;;;3.93;;
19183;SDS011;9724;51.194;6.856;2023-04-25T03:23:40;11.43;;;4.10;;
19183;SDS011;9724;51.194;6.856;2023-04-25T03:26:06;15.47;;;4.27;;
19183;SDS011;9724;51.194;6.856;2023-04-25T03:28:32;15.23;;;4.00;;
19183;SDS011;9724;51.194;6.856;2023-04-25T03:30:58;10.07;;;3.93;;
19183;SDS011;9724;51.194;6.856;2023-04-25T03:33:24;12.73;;;3.77;;
19183;SDS011;9724;51.194;6.856;2023-04-25T03:35:50;15.00;;;4.10;;
19183;SDS011;9724;51.194;6.856;2023-04-25T03:38:18;10.93;;;4.50;;
19183;SDS011;9724;51.194;6.856;2023-04-25T03:40:44;17.60;;;4.23;;
19183;SDS011;9724;51.194;6.856;2023-04-25T03:43:10;10.63;;;4.17;;
19183;SDS011;9724;51.194;6.856;2023-04-25T03:45:36;14.60;;;4.07;;
19183;SDS011;9724;51.194;6.856;2023-04-25T03:48:03;15.60;;;5.43;;
19183;SDS011;9724;51.194;6.856;2023-04-25T03:50:29;9.17;;;4.23;;
19183;SDS011;9724;51.194;6.856;2023-04-25T03:52:56;14.80;;;5.10;;
19183;SDS011;9724;51.194;6.856;2023-04-25T03:55:22;21.10;;;4.63;;
19183;SDS011;9724;51.194;6.856;2023-04-25T03:57:49;13.00;;;4.20;;
19183;SDS011;9724;51.194;6.856;2023-04-25T04:00:15;18.83;;;5.10;;
19183;SDS011;9724;51.194;6.856;2023-04-25T04:02:41;15.90;;;4.13;;
19183;SDS011;9724;51.194;6.856;2023-04-25T04:05:10;21.00;;;4.80;;
19183;SDS011;9724;51.194;6.856;2023-04-25T04:07:37;19.10;;;5.00;;
19183;SDS011;9724;51.194;6.856;2023-04-25T04:10:05;15.57;;;5.30;;
19183;SDS011;9724;51.194;6.856;2023-04-25T04:12:32;15.23;;;4.43;;
19183;SDS011;9724;51.194;6.856;2023-04-25T04:14:59;16.57;;;4.80;;
19183;SDS011;9724;51.194;6.856;2023-04-25T04:17:25;18.40;;;5.20;;
19183;SDS011;9724;51.194;6.856;2023-04-25T04:19:51;20.63;;;5.33;;
19183;SDS011;9724;51.194;6.856;2023-04-25T04:22:17;16.17;;;5.43;;
19183;SDS011;9724;51.194;6.856;2023-04-25T04:24:43;26.40;;;4.87;;
19183;SDS011;9724;51.194;6.856;2023-04-25T04:27:11;18.27;;;4.23;;
19183;SDS011;9724;51.194;6.856;2023-04-25T04:29:39;17.50;;;4.40;;
19183;SDS011;9724;51.194;6.856;2023-04-25T04:32:05;23.53;;;5.10;;
19183;SDS011;9724;51.194;6.856;2023-04-25T04:34:31;27.00;;;6.13;;
19183;SDS011;9724;51.194;6.856;2023-04-25T04:36:59;17.27;;;4.77;;
19183;SDS011;9724;51.194;6.856;2023-04-25T04:39:25;17.03;;;4.67;;
19183;SDS011;9724;51.194;6.856;2023-04-25T04:41:52;26.23;;;4.63;;
19183;SDS011;9724;51.194;6.856;2023-04-25T04:44:18;19.80;;;4.73;;
19183;SDS011;9724;51.194;6.856;2023-04-25T04:46:45;28.77;;;5.20;;
19183;SDS011;9724;51.194;6.856;2023-04-25T04:49:12;14.10;;;4.43;;
19183;SDS011;9724;51.194;6.856;2023-04-25T04:51:39;21.93;;;4.73;;
19183;SDS011;9724;51.194;6.856;2023-04-25T04:54:06;17.37;;;5.13;;
19183;SDS011;9724;51.194;6.856;2023-04-25T04:56:32;19.13;;;4.87;;
19183;SDS011;9724;51.194;6.856;2023-04-25T04:58:58;9.47;;;4.50;;
19183;SDS011;9724;51.194;6.856;2023-04-25T05:01:25;15.83;;;4.33;;
19183;SDS011;9724;51.194;6.856;2023-04-25T05:03:52;28.53;;;4.93;;
19183;SDS011;9724;51.194;6.856;2023-04-25T05:06:19;14.67;;;4.07;;
19183;SDS011;9724;51.194;6.856;2023-04-25T05:08:45;24.53;;;4.77;;
19183;SDS011;9724;51.194;6.856;2023-04-25T05:11:11;24.87;;;5.03;;
19183;SDS011;9724;51.194;6.856;2023-04-25T05:13:38;20.43;;;4.83;;
19183;SDS011;9724;51.194;6.856;2023-04-25T05:16:04;20.50;;;4.67;;
19183;SDS011;9724;51.194;6.856;2023-04-25T05:18:30;25.10;;;4.90;;
19183;SDS011;9724;51.194;6.856;2023-04-25T05:20:57;17.23;;;5.03;;
19183;SDS011;9724;51.194;6.856;2023-04-25T05:23:23;26.27;;;4.80;;
19183;SDS011;9724;51.194;6.856;2023-04-25T05:25:50;19.63;;;4.90;;
19183;SDS011;9724;51.194;6.856;2023-04-25T05:28:16;13.57;;;4.57;;
19183;SDS011;9724;51.194;6.856;2023-04-25T05:30:42;18.57;;;4.10;;
19183;SDS011;9724;51.194;6.856;2023-04-25T05:33:08;18.43;;;4.93;;
19183;SDS011;9724;51.194;6.856;2023-04-25T05:35:34;16.10;;;4.20;;
19183;SDS011;9724;51.194;6.856;2023-04-25T05:38:01;23.43;;;4.87;;
19183;SDS011;9724;51.194;6.856;2023-04-25T05:40:27;16.87;;;4.43;;
19183;SDS011;9724;51.194;6.856;2023-04-25T05:42:54;21.20;;;4.90;;
19183;SDS011;9724;51.194;6.856;2023-04-25T05:45:20;17.30;;;5.03;;
19183;SDS011;9724;51.194;6.856;2023-04-25T05:47:46;14.63;;;4.63;;
19183;SDS011;9724;51.194;6.856;2023-04-25T05:50:12;16.57;;;4.97;;
19183;SDS011;9724;51.194;6.856;2023-04-25T05:52:38;22.17;;;4.93;;
19183;SDS011;9724;51.194;6.856;2023-04-25T05:55:06;23.97;;;5.90;;
19183;SDS011;9724;51.194;6.856;2023-04-25T05:57:32;15.10;;;5.03;;
19183;SDS011;9724;51.194;6.856;2023-04-25T05:59:59;25.10;;;4.73;;
19183;SDS011;9724;51.194;6.856;2023-04-25T06:02:25;22.77;;;4.43;;
19183;SDS011;9724;51.194;6.856;2023-04-25T06:04:52;22.80;;;5.00;;
19183;SDS011;9724;51.194;6.856;2023-04-25T06:07:18;20.03;;;5.43;;
19183;SDS011;9724;51.194;6.856;2023-04-25T06:09:45;22.10;;;4.40;;
19183;SDS011;9724;51.194;6.856;2023-04-25T06:12:12;20.13;;;5.33;;
19183;SDS011;9724;51.194;6.856;2023-04-25T06:14:38;30.37;;;4.70;;
19183;SDS011;9724;51.194;6.856;2023-04-25T06:17:04;12.87;;;3.90;;
19183;SDS011;9724;51.194;6.856;2023-04-25T06:19:33;21.80;;;4.90;;
19183;SDS011;9724;51.194;6.856;2023-04-25T06:22:00;20.20;;;5.07;;
19183;SDS011;9724;51.194;6.856;2023-04-25T06:24:27;18.43;;;5.00;;
19183;SDS011;9724;51.194;6.856;2023-04-25T06:26:53;20.00;;;5.50;;
19183;SDS011;9724;51.194;6.856;2023-04-25T06:29:20;16.10;;;4.17;;
19183;SDS011;9724;51.194;6.856;2023-04-25T06:31:46;18.13;;;4.07;;
19183;SDS011;9724;51.194;6.856;2023-04-25T06:34:13;19.30;;;4.97;;
19183;SDS011;9724;51.194;6.856;2023-04-25T06:36:39;16.07;;;5.37;;
19183;SDS011;9724;51.194;6.856;2023-04-25T06:39:06;20.20;;;5.00;;
19183;SDS011;9724;51.194;6.856;2023-04-25T06:41:34;20.70;;;5.50;;
19183;SDS011;9724;51.194;6.856;2023-04-25T06:44:00;19.90;;;4.87;;
19183;SDS011;9724;51.194;6.856;2023-04-25T06:46:27;21.90;;;5.97;;
19183;SDS011;9724;51.194;6.856;2023-04-25T06:48:53;20.23;;;5.90;;
19183;SDS011;9724;51.194;6.856;2023-04-25T06:51:20;23.77;;;7.17;;
19183;SDS011;9724;51.194;6.856;2023-04-25T06:53:49;19.43;;;7.03;;
19183;SDS011;9724;51.194;6.856;2023-04-25T06:56:15;25.60;;;7.53;;
19183;SDS011;9724;51.194;6.856;2023-04-25T06:58:42;19.20;;;6.43;;
19183;SDS011;9724;51.194;6.856;2023-04-25T07:01:08;22.23;;;6.40;;
19183;SDS011;9724;51.194;6.856;2023-04-25T07:03:35;25.70;;;6.83;;
19183;SDS011;9724;51.194;6.856;2023-04-25T07:06:02;25.93;;;6.60;;
19183;SDS011;9724;51.194;6.856;2023-04-25T07:08:29;19.17;;;6.10;;
19183;SDS011;9724;51.194;6.856;2023-04-25T07:10:55;21.40;;;5.43;;
19183;SDS011;9724;51.194;6.856;2023-04-25T07:13:21;19.00;;;5.27;;
19183;SDS011;9724;51.194;6.856;2023-04-25T07:15:47;21.00;;;5.47;;
19183;SDS011;9724;51.194;6.856;2023-04-25T07:18:14;22.17;;;6.20;;
19183;SDS011;9724;51.194;6.856;2023-04-25T07:20:41;14.33;;;5.30;;
19183;SDS011;9724;51.194;6.856;2023-04-25T07:23:07;24.13;;;7.00;;
19183;SDS011;9724;51.194;6.856;2023-04-25T07:25:33;26.20;;;8.40;;
19183;SDS011;9724;51.194;6.856;2023-04-25T07:28:00;24.17;;;7.70;;
19183;SDS011;9724;51.194;6.856;2023-04-25T07:30:26;17.80;;;5.30;;
19183;SDS011;9724;51.194;6.856;2023-04-25T07:32:53;15.90;;;4.90;;
19183;SDS011;9724;51.194;6.856;2023-04-25T07:35:19;19.43;;;5.67;;
19183;SDS011;9724;51.194;6.856;2023-04-25T07:37:46;18.13;;;5.27;;
19183;SDS011;9724;51.194;6.856;2023-04-25T07:40:12;18.83;;;5.30;;
19183;SDS011;9724;51.194;6.856;2023-04-25T07:42:40;20.30;;;4.47;;
19183;SDS011;9724;51.194;6.856;2023-04-25T07:45:07;14.40;;;3.67;;
19183;SDS011;9724;51.194;6.856;2023-04-25T07:47:34;14.57;;;3.43;;
19183;SDS011;9724;51.194;6.856;2023-04-25T07:50:00;15.43;;;3.17;;
19183;SDS011;9724;51.194;6.856;2023-04-25T07:52:27;12.63;;;2.77;;
19183;SDS011;9724;51.194;6.856;2023-04-25T07:54:53;17.47;;;3.70;;
19183;SDS011;9724;51.194;6.856;2023-04-25T07:57:20;17.80;;;3.10;;
19183;SDS011;9724;51.194;6.856;2023-04-25T07:59:46;17.37;;;3.93;;
19183;SDS011;9724;51.194;6.856;2023-04-25T08:02:12;14.97;;;4.00;;
19183;SDS011;9724;51.194;6.856;2023-04-25T08:04:39;8.20;;;3.20;;
19183;SDS011;9724;51.194;6.856;2023-04-25T08:07:05;14.27;;;2.83;;
19183;SDS011;9724;51.194;6.856;2023-04-25T08:09:31;12.83;;;3.33;;
19183;SDS011;9724;51.194;6.856;2023-04-25T08:12:00;8.93;;;2.90;;
19183;SDS011;9724;51.194;6.856;2023-04-25T08:14:27;10.20;;;2.67;;
19183;SDS011;9724;51.194;6.856;2023-04-25T08:16:54;11.63;;;2.70;;
19183;SDS011;9724;51.194;6.856;2023-04-25T08:19:20;20.50;;;3.27;;
19183;SDS011;9724;51.194;6.856;2023-04-25T08:21:46;12.67;;;3.10;;
19183;SDS011;9724;51.194;6.856;2023-04-25T08:24:12;22.93;;;4.17;;
19183;SDS011;9724;51.194;6.856;2023-04-25T08:26:39;8.30;;;2.47;;
19183;SDS011;9724;51.194;6.856;2023-04-25T08:29:07;12.23;;;3.20;;
19183;SDS011;9724;51.194;6.856;2023-04-25T08:31:33;13.63;;;3.60;;
19183;SDS011;9724;51.194;6.856;2023-04-25T08:33:59;12.03;;;3.10;;
19183;SDS011;9724;51.194;6.856;2023-04-25T08:36:26;10.03;;;2.97;;
19183;SDS011;9724;51.194;6.856;2023-04-25T08:39:05;9.93;;;3.20;;
19183;SDS011;9724;51.194;6.856;2023-04-25T08:41:31;11.73;;;3.40;;
19183;SDS011;9724;51.194;6.856;2023-04-25T08:43:57;11.17;;;3.13;;
19183;SDS011;9724;51.194;6.856;2023-04-25T08:46:26;11.63;;;3.37;;
19183;SDS011;9724;51.194;6.856;2023-04-25T08:48:52;9.83;;;3.57;;
19183;SDS011;9724;51.194;6.856;2023-04-25T08:51:22;24.63;;;3.43;;
19183;SDS011;9724;51.194;6.856;2023-04-25T08:53:50;8.13;;;2.57;;
19183;SDS011;9724;51.194;6.856;2023-04-25T08:56:22;8.67;;;3.00;;
19183;SDS011;9724;51.194;6.856;2023-04-25T08:58:50;8.20;;;2.50;;
19183;SDS011;9724;51.194;6.856;2023-04-25T09:01:17;8.33;;;2.80;;
19183;SDS011;9724;51.194;6.856;2023-04-25T09:03:44;13.70;;;3.00;;
19183;SDS011;9724;51.194;6.856;2023-04-25T09:06:12;8.40;;;2.90;;
19183;SDS011;9724;51.194;6.856;2023-04-25T09:08:38;12.87;;;2.97;;
19183;SDS011;9724;51.194;6.856;2023-04-25T09:11:06;10.97;;;2.70;;
19183;SDS011;9724;51.194;6.856;2023-04-25T09:13:32;9.97;;;2.67;;
19183;SDS011;9724;51.194;6.856;2023-04-25T09:15:58;8.17;;;2.90;;
19183;SDS011;9724;51.194;6.856;2023-04-25T09:18:25;9.40;;;2.77;;
19183;SDS011;9724;51.194;6.856;2023-04-25T09:20:56;12.33;;;2.70;;
19183;SDS011;9724;51.194;6.856;2023-04-25T09:23:28;9.77;;;2.20;;
19183;SDS011;9724;51.194;6.856;2023-04-25T09:25:56;10.90;;;2.43;;
19183;SDS011;9724;51.194;6.856;2023-04-25T09:28:23;12.07;;;2.37;;
19183;SDS011;9724;51.194;6.856;2023-04-25T09:30:53;6.70;;;2.40;;
19183;SDS011;9724;51.194;6.856;2023-04-25T09:33:20;13.80;;;3.00;;
19183;SDS011;9724;51.194;6.856;2023-04-25T09:35:53;14.07;;;3.30;;
19183;SDS011;9724;51.194;6.856;2023-04-25T09:38:21;8.37;;;2.87;;
19183;SDS011;9724;51.194;6.856;2023-04-25T09:40:48;7.37;;;2.27;;
19183;SDS011;9724;51.194;6.856;2023-04-25T09:43:18;11.73;;;2.40;;
19183;SDS011;9724;51.194;6.856;2023-04-25T09:45:45;12.00;;;2.63;;
19183;SDS011;9724;51.194;6.856;2023-04-25T09:48:16;9.07;;;2.50;;
19183;SDS011;9724;51.194;6.856;2023-04-25T09:50:43;7.77;;;2.67;;
19183;SDS011;9724;51.194;6.856;2023-04-25T09:53:09;7.20;;;1.97;;
19183;SDS011;9724;51.194;6.856;2023-04-25T09:55:36;8.17;;;2.27;;
19183;SDS011;9724;51.194;6.856;2023-04-25T09:58:04;13.13;;;2.40;;
19183;SDS011;9724;51.194;6.856;2023-04-25T10:00:32;6.27;;;2.20;;
19183;SDS011;9724;51.194;6.856;2023-04-25T10:02:59;7.17;;;1.97;;
19183;SDS011;9724;51.194;6.856;2023-04-25T10:05:27;5.53;;;2.10;;
19183;SDS011;9724;51.194;6.856;2023-04-25T10:07:57;6.20;;;1.73;;
19183;SDS011;9724;51.194;6.856;2023-04-25T10:10:24;7.77;;;1.80;;
19183;SDS011;9724;51.194;6.856;2023-04-25T10:12:56;5.00;;;1.50;;
19183;SDS011;9724;51.194;6.856;2023-04-25T10:15:22;5.67;;;1.67;;
19183;SDS011;9724;51.194;6.856;2023-04-25T10:17:49;5.80;;;1.83;;
19183;SDS011;9724;51.194;6.856;2023-04-25T10:20:15;6.60;;;2.00;;
19183;SDS011;9724;51.194;6.856;2023-04-25T10:22:42;9.13;;;1.70;;
19183;SDS011;9724;51.194;6.856;2023-04-25T10:25:10;8.87;;;2.60;;
19183;SDS011;9724;51.194;6.856;2023-04-25T10:27:38;9.70;;;2.67;;
19183;SDS011;9724;51.194;6.856;2023-04-25T10:30:07;12.47;;;2.33;;
19183;SDS011;9724;51.194;6.856;2023-04-25T10:32:36;9.60;;;2.23;;
19183;SDS011;9724;51.194;6.856;2023-04-25T10:35:13;5.17;;;1.80;;
19183;SDS011;9724;51.194;6.856;2023-04-25T10:37:57;8.63;;;2.17;;
19183;SDS011;9724;51.194;6.856;2023-04-25T10:40:28;6.43;;;1.57;;
19183;SDS011;9724;51.194;6.856;2023-04-25T10:42:55;15.40;;;2.13;;
19183;SDS011;9724;51.194;6.856;2023-04-25T10:45:22;4.20;;;1.50;;
19183;SDS011;9724;51.194;6.856;2023-04-25T10:47:48;5.57;;;1.87;;
19183;SDS011;9724;51.194;6.856;2023-04-25T10:50:15;5.97;;;1.57;;
19183;SDS011;9724;51.194;6.856;2023-04-25T10:52:41;3.37;;;1.50;;
19183;SDS011;9724;51.194;6.856;2023-04-25T10:55:08;5.37;;;1.70;;
19183;SDS011;9724;51.194;6.856;2023-04-25T10:57:39;6.30;;;1.73;;
19183;SDS011;9724;51.194;6.856;2023-04-25T11:00:10;4.23;;;1.30;;
19183;SDS011;9724;51.194;6.856;2023-04-25T11:02:40;5.07;;;1.40;;
19183;SDS011;9724;51.194;6.856;2023-04-25T11:05:08;7.23;;;1.60;;
19183;SDS011;9724;51.194;6.856;2023-04-25T11:07:37;5.10;;;1.30;;
19183;SDS011;9724;51.194;6.856;2023-04-25T11:10:05;5.17;;;1.40;;
19183;SDS011;9724;51.194;6.856;2023-04-25T11:12:32;4.30;;;1.30;;
19183;SDS011;9724;51.194;6.856;2023-04-25T11:14:58;3.73;;;1.50;;
19183;SDS011;9724;51.194;6.856;2023-04-25T11:17:26;4.30;;;1.40;;
19183;SDS011;9724;51.194;6.856;2023-04-25T11:19:54;3.47;;;1.30;;
19183;SDS011;9724;51.194;6.856;2023-04-25T11:22:21;10.00;;;1.40;;
19183;SDS011;9724;51.194;6.856;2023-04-25T11:24:47;7.60;;;1.60;;
19183;SDS011;9724;51.194;6.856;2023-04-25T11:27:14;3.87;;;1.53;;
19183;SDS011;9724;51.194;6.856;2023-04-25T11:29:40;5.60;;;1.40;;
19183;SDS011;9724;51.194;6.856;2023-04-25T11:32:06;4.63;;;1.70;;
19183;SDS011;9724;51.194;6.856;2023-04-25T11:34:33;7.00;;;1.80;;
19183;SDS011;9724;51.194;6.856;2023-04-25T11:37:00;4.73;;;1.30;;
19183;SDS011;9724;51.194;6.856;2023-04-25T11:39:27;4.00;;;1.37;;
19183;SDS011;9724;51.194;6.856;2023-04-25T11:41:54;6.63;;;1.50;;
19183;SDS011;9724;51.194;6.856;2023-04-25T11:44:21;4.20;;;1.50;;
19183;SDS011;9724;51.194;6.856;2023-04-25T11:46:48;4.30;;;1.30;;
19183;SDS011;9724;51.194;6.856;2023-04-25T11:49:15;7.73;;;1.90;;
19183;SDS011;9724;51.194;6.856;2023-04-25T11:51:44;6.23;;;1.87;;
19183;SDS011;9724;51.194;6.856;2023-04-25T11:54:11;6.57;;;1.80;;
19183;SDS011;9724;51.194;6.856;2023-04-25T11:56:40;5.20;;;1.60;;
19183;SDS011;9724;51.194;6.856;2023-04-25T11:59:07;3.90;;;1.60;;
19183;SDS011;9724;51.194;6.856;2023-04-25T12:01:34;6.77;;;1.60;;
19183;SDS011;9724;51.194;6.856;2023-04-25T12:04:10;4.00;;;1.90;;
19183;SDS011;9724;51.194;6.856;2023-04-25T12:06:37;10.90;;;1.80;;
19183;SDS011;9724;51.194;6.856;2023-04-25T12:09:07;5.23;;;1.80;;
19183;SDS011;9724;51.194;6.856;2023-04-25T12:11:40;4.93;;;1.40;;
19183;SDS011;9724;51.194;6.856;2023-04-25T12:14:07;7.37;;;1.80;;
19183;SDS011;9724;51.194;6.856;2023-04-25T12:16:39;6.37;;;2.00;;
19183;SDS011;9724;51.194;6.856;2023-04-25T12:19:06;6.87;;;2.10;;
19183;SDS011;9724;51.194;6.856;2023-04-25T12:21:32;6.77;;;2.03;;
19183;SDS011;9724;51.194;6.856;2023-04-25T12:24:09;5.27;;;2.10;;
19183;SDS011;9724;51.194;6.856;2023-04-25T12:26:47;7.17;;;1.73;;
19183;SDS011;9724;51.194;6.856;2023-04-25T12:29:17;7.37;;;1.80;;
19183;SDS011;9724;51.194;6.856;2023-04-25T12:31:44;6.93;;;2.20;;
19183;SDS011;9724;51.194;6.856;2023-04-25T12:34:11;10.57;;;2.37;;
19183;SDS011;9724;51.194;6.856;2023-04-25T12:36:37;11.17;;;2.87;;
19183;SDS011;9724;51.194;6.856;2023-04-25T12:39:03;12.23;;;2.90;;
19183;SDS011;9724;51.194;6.856;2023-04-25T12:41:30;8.77;;;2.90;;
19183;SDS011;9724;51.194;6.856;2023-04-25T12:43:57;7.23;;;3.03;;
19183;SDS011;9724;51.194;6.856;2023-04-25T12:46:23;13.27;;;3.83;;
19183;SDS011;9724;51.194;6.856;2023-04-25T12:48:49;11.67;;;3.30;;
19183;SDS011;9724;51.194;6.856;2023-04-25T12:51:15;11.87;;;3.20;;
19183;SDS011;9724;51.194;6.856;2023-04-25T12:53:42;9.47;;;3.20;;
19183;SDS011;9724;51.194;6.856;2023-04-25T12:56:08;8.50;;;2.87;;
19183;SDS011;9724;51.194;6.856;2023-04-25T12:58:34;10.27;;;2.83;;
19183;SDS011;9724;51.194;6.856;2023-04-25T13:01:01;6.67;;;2.90;;
19183;SDS011;9724;51.194;6.856;2023-04-25T13:03:27;9.00;;;2.50;;
19183;SDS011;9724;51.194;6.856;2023-04-25T13:05:54;9.53;;;2.87;;
19183;SDS011;9724;51.194;6.856;2023-04-25T13:08:21;4.67;;;2.03;;
19183;SDS011;9724;51.194;6.856;2023-04-25T13:10:47;7.00;;;2.67;;
19183;SDS011;9724;51.194;6.856;2023-04-25T13:13:13;9.17;;;2.33;;
19183;SDS011;9724;51.194;6.856;2023-04-25T13:15:39;7.53;;;2.23;;
19183;SDS011;9724;51.194;6.856;2023-04-25T13:18:06;5.27;;;2.03;;
19183;SDS011;9724;51.194;6.856;2023-04-25T13:20:33;6.43;;;2.40;;
19183;SDS011;9724;51.194;6.856;2023-04-25T13:22:59;7.13;;;1.90;;
19183;SDS011;9724;51.194;6.856;2023-04-25T13:25:27;9.20;;;3.10;;
19183;SDS011;9724;51.194;6.856;2023-04-25T13:27:54;6.07;;;2.07;;
19183;SDS011;9724;51.194;6.856;2023-04-25T13:30:20;11.20;;;2.33;;
19183;SDS011;9724;51.194;6.856;2023-04-25T13:32:46;4.23;;;2.00;;
19183;SDS011;9724;51.194;6.856;2023-04-25T13:35:13;4.40;;;1.80;;
19183;SDS011;9724;51.194;6.856;2023-04-25T13:37:40;5.77;;;1.90;;
19183;SDS011;9724;51.194;6.856;2023-04-25T13:40:07;7.37;;;1.80;;
19183;SDS011;9724;51.194;6.856;2023-04-25T13:42:35;5.47;;;2.00;;
19183;SDS011;9724;51.194;6.856;2023-04-25T13:45:02;14.30;;;2.87;;
19183;SDS011;9724;51.194;6.856;2023-04-25T13:47:28;4.83;;;2.00;;
19183;SDS011;9724;51.194;6.856;2023-04-25T13:49:55;9.03;;;2.30;;
19183;SDS011;9724;51.194;6.856;2023-04-25T13:52:22;2.90;;;1.70;;
19183;SDS011;9724;51.194;6.856;2023-04-25T13:54:49;4.63;;;2.20;;
19183;SDS011;9724;51.194;6.856;2023-04-25T13:57:15;7.10;;;1.70;;
19183;SDS011;9724;51.194;6.856;2023-04-25T13:59:42;10.97;;;1.80;;
19183;SDS011;9724;51.194;6.856;2023-04-25T14:02:09;4.47;;;1.73;;
19183;SDS011;9724;51.194;6.856;2023-04-25T14:04:35;3.97;;;1.50;;
19183;SDS011;9724;51.194;6.856;2023-04-25T14:07:02;4.33;;;1.43;;
19183;SDS011;9724;51.194;6.856;2023-04-25T14:09:29;5.50;;;1.60;;
19183;SDS011;9724;51.194;6.856;2023-04-25T14:11:55;3.90;;;1.63;;
19183;SDS011;9724;51.194;6.856;2023-04-25T14:14:22;6.87;;;1.37;;
19183;SDS011;9724;51.194;6.856;2023-04-25T14:16:49;3.30;;;1.40;;
19183;SDS011;9724;51.194;6.856;2023-04-25T14:19:15;3.97;;;1.20;;
19183;SDS011;9724;51.194;6.856;2023-04-25T14:21:42;3.70;;;1.30;;
19183;SDS011;9724;51.194;6.856;2023-04-25T14:24:09;2.90;;;1.23;;
19183;SDS011;9724;51.194;6.856;2023-04-25T14:26:36;2.83;;;1.57;;
19183;SDS011;9724;51.194;6.856;2023-04-25T14:29:03;3.83;;;1.80;;
19183;SDS011;9724;51.194;6.856;2023-04-25T14:31:29;6.10;;;2.17;;
19183;SDS011;9724;51.194;6.856;2023-04-25T14:33:56;9.13;;;2.07;;
19183;SDS011;9724;51.194;6.856;2023-04-25T14:36:25;8.80;;;1.80;;
19183;SDS011;9724;51.194;6.856;2023-04-25T14:38:52;5.20;;;2.17;;
19183;SDS011;9724;51.194;6.856;2023-04-25T14:41:18;7.80;;;1.70;;
19183;SDS011;9724;51.194;6.856;2023-04-25T14:43:45;4.30;;;1.50;;
19183;SDS011;9724;51.194;6.856;2023-04-25T14:46:11;7.43;;;1.77;;
19183;SDS011;9724;51.194;6.856;2023-04-25T14:48:37;4.87;;;1.60;;
19183;SDS011;9724;51.194;6.856;2023-04-25T14:51:04;4.80;;;1.53;;